createdAt,value
2019-05-17T00:00:16.774Z,5.162
2019-05-17T00:03:16.898Z,3.100
2019-05-17T00:06:16.873Z,4.300
2019-05-17T00:09:17.549Z,2.538
2019-05-17T00:12:16.640Z,5.938
2019-05-17T00:15:17.018Z,4.425
2019-05-17T00:18:17.106Z,3.575
2019-05-17T00:21:16.995Z,5.838
2019-05-17T00:24:14.976Z,5.250
2019-05-17T00:27:17.207Z,4.200
2019-05-17T00:30:17.453Z,5.463
2019-05-17T00:33:16.958Z,6.475
2019-05-17T00:36:17.626Z,4.037
2019-05-17T00:39:16.699Z,7.200
2019-05-17T00:42:17.089Z,4.500
2019-05-17T00:45:17.313Z,4.287
2019-05-17T00:48:17.136Z,3.725
2019-05-17T00:51:16.715Z,5.363
2019-05-17T00:54:17.476Z,5.175
2019-05-17T00:57:16.608Z,4.775
2019-05-17T01:00:17.044Z,3.125
2019-05-17T01:03:16.264Z,5.637
2019-05-17T01:06:16.958Z,7.763
2019-05-17T01:09:17.046Z,5.825
2019-05-17T01:12:16.428Z,7.675
2019-05-17T01:15:16.751Z,6.887
2019-05-17T01:18:16.263Z,6.150
2019-05-17T01:21:16.859Z,3.175
2019-05-17T01:24:17.294Z,5.525
2019-05-17T01:27:17.242Z,8.913
2019-05-17T01:30:17.274Z,6.200
2019-05-17T01:33:17.142Z,5.562
2019-05-17T01:36:17.140Z,5.000
2019-05-17T01:39:18.726Z,6.588
2019-05-17T01:42:17.016Z,4.887
2019-05-17T01:45:16.694Z,5.062
2019-05-17T01:48:16.376Z,5.787
2019-05-17T01:51:16.983Z,8.738
2019-05-17T01:54:17.557Z,8.500
2019-05-17T01:57:16.890Z,7.912
2019-05-17T02:00:17.586Z,7.050
2019-05-17T02:03:17.190Z,6.375
2019-05-17T02:06:16.562Z,7.050
2019-05-17T02:09:32.314Z,5.400
2019-05-17T02:12:17.292Z,8.787
2019-05-17T02:15:16.434Z,8.175
2019-05-17T02:18:17.331Z,4.250
2019-05-17T02:21:16.857Z,4.850
2019-05-17T02:24:16.970Z,5.562
2019-05-17T02:27:15.736Z,4.625
2019-05-17T02:30:15.251Z,8.188
2019-05-17T02:33:23.629Z,6.625
2019-05-17T02:36:15.201Z,7.425
2019-05-17T02:39:15.588Z,9.212
2019-05-17T02:42:15.082Z,8.225
2019-05-17T02:45:15.447Z,8.000
2019-05-17T02:48:15.417Z,8.350
2019-05-17T02:51:15.433Z,6.338
2019-05-17T02:54:15.713Z,6.162
2019-05-17T02:57:15.262Z,10.887
2019-05-17T03:00:15.091Z,8.950
2019-05-17T03:03:15.476Z,7.100
2019-05-17T03:06:15.825Z,11.438
2019-05-17T03:09:15.224Z,9.325
2019-05-17T03:12:15.058Z,7.512
2019-05-17T03:15:15.327Z,7.587
2019-05-17T03:18:15.828Z,13.062
2019-05-17T03:21:14.994Z,6.700
2019-05-17T03:24:16.364Z,8.462
2019-05-17T03:27:15.090Z,9.425
2019-05-17T03:30:18.225Z,8.163
2019-05-17T03:33:16.719Z,5.775
2019-05-17T03:36:16.850Z,4.400
2019-05-17T03:39:15.230Z,10.725
2019-05-17T03:42:15.645Z,5.575
2019-05-17T03:45:15.488Z,9.000
2019-05-17T03:48:15.495Z,10.475
2019-05-17T03:51:15.422Z,9.900
2019-05-17T03:54:15.756Z,11.125
2019-05-17T03:57:15.873Z,4.713
2019-05-17T04:00:15.770Z,8.587
2019-05-17T04:03:15.327Z,8.425
2019-05-17T04:06:15.630Z,9.575
2019-05-17T04:09:15.231Z,8.338
2019-05-17T04:12:15.149Z,7.050
2019-05-17T04:15:23.666Z,8.113
2019-05-17T04:18:15.621Z,7.550
2019-05-17T04:21:14.895Z,10.188
2019-05-17T04:24:15.710Z,9.500
2019-05-17T04:27:15.290Z,6.537
2019-05-17T04:30:15.767Z,6.838
2019-05-17T04:33:15.928Z,6.413
2019-05-17T04:36:15.170Z,7.238
2019-05-17T04:39:15.647Z,7.275
2019-05-17T04:42:14.870Z,10.450
2019-05-17T04:45:15.650Z,8.550
2019-05-17T04:48:14.980Z,7.550
2019-05-17T04:51:15.597Z,8.750
2019-05-17T04:54:15.745Z,8.350
2019-05-17T04:57:15.875Z,11.475
2019-05-17T05:00:15.788Z,5.400
2019-05-17T05:03:15.778Z,7.438
2019-05-17T05:06:15.037Z,11.387
2019-05-17T05:09:15.273Z,11.963
2019-05-17T05:12:15.508Z,10.450
2019-05-17T05:15:14.977Z,7.850
2019-05-17T05:18:15.033Z,8.800
2019-05-17T05:21:15.049Z,8.100
2019-05-17T05:24:15.668Z,15.638
2019-05-17T05:27:15.835Z,8.650
2019-05-17T05:30:25.009Z,11.963
2019-05-17T05:33:15.504Z,11.613
2019-05-17T05:36:15.556Z,10.888
2019-05-17T05:39:15.173Z,11.562
2019-05-17T05:42:15.422Z,9.425
2019-05-17T05:45:15.677Z,5.175
2019-05-17T05:48:15.533Z,6.588
2019-05-17T05:51:14.976Z,6.350
2019-05-17T05:54:15.379Z,8.188
2019-05-17T05:57:15.276Z,10.512
2019-05-17T06:00:15.501Z,8.938
2019-05-17T06:03:15.354Z,9.925
2019-05-17T06:06:15.278Z,9.775
2019-05-17T06:09:15.569Z,10.400
2019-05-17T06:12:23.697Z,9.412
2019-05-17T06:15:14.957Z,8.213
2019-05-17T06:18:15.324Z,7.325
2019-05-17T06:21:15.228Z,11.200
2019-05-17T06:24:15.384Z,9.412
2019-05-17T06:27:15.220Z,8.200
2019-05-17T06:30:15.335Z,9.287
2019-05-17T06:33:27.019Z,8.525
2019-05-17T06:36:15.855Z,9.613
2019-05-17T06:39:15.186Z,6.050
2019-05-17T06:42:15.682Z,10.588
2019-05-17T06:45:14.958Z,8.625
2019-05-17T06:48:15.929Z,9.850
2019-05-17T06:51:15.571Z,10.413
2019-05-17T06:54:14.910Z,11.100
2019-05-17T06:57:15.150Z,11.025
2019-05-17T07:00:20.702Z,8.225
2019-05-17T07:03:15.732Z,10.600
2019-05-17T07:06:15.348Z,12.863
2019-05-17T07:09:15.478Z,13.537
2019-05-17T07:12:15.721Z,7.912
2019-05-17T07:15:15.328Z,12.488
2019-05-17T07:18:14.944Z,14.312
2019-05-17T07:21:15.643Z,11.662
2019-05-17T07:24:15.350Z,10.075
2019-05-17T07:27:15.552Z,9.788
2019-05-17T07:30:15.238Z,7.787
2019-05-17T07:33:15.016Z,6.587
2019-05-17T07:36:15.084Z,11.587
2019-05-17T07:39:15.075Z,9.475
2019-05-17T07:42:15.143Z,9.800
2019-05-17T07:45:15.615Z,8.312
2019-05-17T07:48:15.259Z,7.925
2019-05-17T07:51:15.086Z,13.188
2019-05-17T07:54:15.625Z,12.750
2019-05-17T07:57:15.883Z,13.587
2019-05-17T08:00:15.550Z,14.387
2019-05-17T08:03:15.114Z,9.025
2019-05-17T08:06:15.405Z,9.663
2019-05-17T08:09:15.152Z,13.113
2019-05-17T08:12:15.761Z,11.637
2019-05-17T08:15:15.144Z,10.575
2019-05-17T08:18:15.131Z,11.475
2019-05-17T08:21:15.492Z,9.350
2019-05-17T08:24:15.073Z,13.275
2019-05-17T08:27:15.944Z,14.412
2019-05-17T08:30:15.816Z,8.938
2019-05-17T08:33:15.085Z,11.400
2019-05-17T08:36:15.318Z,9.950
2019-05-17T08:39:15.562Z,11.050
2019-05-17T08:42:15.701Z,10.337
2019-05-17T08:45:15.863Z,7.512
2019-05-17T08:48:15.271Z,10.062
2019-05-17T08:51:15.326Z,20.737
2019-05-17T08:54:15.116Z,11.500
2019-05-17T08:57:15.862Z,11.137
2019-05-17T09:00:15.143Z,12.738
2019-05-17T09:03:15.261Z,15.525
2019-05-17T09:06:15.200Z,10.625
2019-05-17T09:09:15.509Z,16.825
2019-05-17T09:12:15.008Z,16.200
2019-05-17T09:15:15.623Z,9.100
2019-05-17T09:18:15.325Z,6.863
2019-05-17T09:21:15.112Z,7.350
2019-05-17T09:24:15.821Z,12.913
2019-05-17T09:27:15.594Z,3.513
2019-05-17T09:30:15.579Z,8.562
2019-05-17T09:33:14.971Z,10.225
2019-05-17T09:36:15.811Z,8.675
2019-05-17T09:39:14.925Z,7.325
2019-05-17T09:42:15.369Z,10.188
2019-05-17T09:45:14.946Z,6.800
2019-05-17T09:48:15.079Z,10.562
2019-05-17T09:51:15.396Z,9.212
2019-05-17T09:54:14.953Z,11.762
2019-05-17T09:57:15.875Z,7.550
2019-05-17T10:00:15.337Z,7.938
2019-05-17T10:03:15.308Z,5.162
2019-05-17T10:06:15.269Z,7.425
2019-05-17T10:09:15.892Z,10.588
2019-05-17T10:12:15.828Z,6.250
2019-05-17T10:15:15.714Z,8.262
2019-05-17T10:18:15.499Z,9.325
2019-05-17T10:21:15.497Z,11.887
2019-05-17T10:24:15.917Z,9.825
2019-05-17T10:27:15.853Z,5.600
2019-05-17T10:30:14.950Z,6.312
2019-05-17T10:33:15.889Z,8.338
2019-05-17T10:36:15.228Z,8.100
2019-05-17T10:39:15.345Z,10.462
2019-05-17T10:42:15.471Z,8.625
2019-05-17T10:45:20.398Z,9.137
2019-05-17T10:48:15.566Z,6.400
2019-05-17T10:51:15.845Z,5.400
2019-05-17T10:54:15.364Z,7.688
2019-05-17T10:57:15.808Z,7.062
2019-05-17T11:00:15.965Z,7.475
2019-05-17T11:03:14.968Z,5.912
2019-05-17T11:06:15.374Z,11.625
2019-05-17T11:09:15.782Z,9.412
2019-05-17T11:12:15.027Z,4.787
2019-05-17T11:15:15.822Z,9.238
2019-05-17T11:18:15.220Z,6.263
2019-05-17T11:21:15.082Z,7.412
2019-05-17T11:24:14.944Z,7.312
2019-05-17T11:27:15.735Z,4.838
2019-05-17T11:30:15.795Z,5.513
2019-05-17T11:33:15.083Z,7.463
2019-05-17T11:36:14.986Z,6.888
2019-05-17T11:39:14.933Z,6.338
2019-05-17T11:42:15.782Z,6.250
2019-05-17T11:45:27.102Z,7.900
2019-05-17T11:48:14.901Z,5.412
2019-05-17T11:51:15.389Z,9.662
2019-05-17T11:54:15.583Z,5.188
2019-05-17T11:57:15.426Z,5.488
2019-05-17T12:00:15.269Z,4.450
2019-05-17T12:03:15.631Z,4.288
2019-05-17T12:06:15.743Z,4.787
2019-05-17T12:09:15.076Z,6.775
2019-05-17T12:12:15.818Z,5.987
2019-05-17T12:15:15.151Z,4.950
2019-05-17T12:18:15.262Z,4.562
2019-05-17T12:21:15.210Z,3.137
2019-05-17T12:24:15.199Z,2.050
2019-05-17T12:27:15.220Z,3.987
2019-05-17T12:30:15.202Z,4.225
2019-05-17T12:33:15.051Z,3.175
2019-05-17T12:36:15.088Z,5.225
2019-05-17T12:39:20.690Z,2.913
2019-05-17T12:42:15.178Z,6.062
2019-05-17T12:45:15.098Z,3.862
2019-05-17T12:48:15.830Z,2.763
2019-05-17T12:51:15.104Z,5.213
2019-05-17T12:54:15.374Z,3.512
2019-05-17T12:57:15.083Z,2.100
2019-05-17T13:00:15.879Z,2.500
2019-05-17T13:03:14.970Z,1.525
2019-05-17T13:06:15.876Z,5.900
2019-05-17T13:09:15.121Z,3.350
2019-05-17T13:12:15.874Z,3.675
2019-05-17T13:15:15.855Z,1.387
2019-05-17T13:18:15.802Z,3.462
2019-05-17T13:21:15.053Z,1.912
2019-05-17T13:24:15.890Z,4.375
2019-05-17T13:27:15.814Z,3.175
2019-05-17T13:30:15.340Z,2.300
2019-05-17T13:33:15.217Z,2.538
2019-05-17T13:36:15.197Z,2.575
2019-05-17T13:39:15.877Z,2.775
2019-05-17T13:42:15.923Z,1.862
2019-05-17T13:45:14.932Z,4.862
2019-05-17T13:48:15.819Z,2.850
2019-05-17T13:51:15.793Z,1.413
2019-05-17T13:54:15.679Z,2.762
2019-05-17T13:57:15.418Z,1.637
2019-05-17T14:00:15.200Z,2.038
2019-05-17T14:03:15.854Z,2.325
2019-05-17T14:06:15.204Z,1.500
2019-05-17T14:09:14.965Z,2.125
2019-05-17T14:12:15.770Z,1.675
2019-05-17T14:15:14.952Z,1.663
2019-05-17T14:18:15.826Z,1.700
2019-05-17T14:21:15.631Z,3.463
2019-05-17T14:24:15.396Z,2.200
2019-05-17T14:27:15.170Z,2.087
2019-05-17T14:30:15.001Z,1.325
2019-05-17T14:33:15.747Z,3.550
2019-05-17T14:36:15.805Z,2.987
2019-05-17T14:39:15.658Z,2.538
2019-05-17T14:42:15.477Z,3.487
2019-05-17T14:45:15.295Z,3.150
2019-05-17T14:48:15.299Z,2.737
2019-05-17T14:51:15.086Z,2.775
2019-05-17T14:54:15.084Z,3.675
2019-05-17T14:57:15.612Z,2.825
2019-05-17T15:00:15.456Z,2.162
2019-05-17T15:03:15.400Z,1.612
2019-05-17T15:06:15.927Z,1.788
2019-05-17T15:09:15.634Z,3.513
2019-05-17T15:12:27.253Z,3.337
2019-05-17T15:15:25.804Z,2.062
2019-05-17T15:18:15.787Z,2.775
2019-05-17T15:21:15.463Z,4.188
2019-05-17T15:24:15.103Z,3.950
2019-05-17T15:27:15.779Z,2.250
2019-05-17T15:30:15.448Z,2.650
2019-05-17T15:33:15.148Z,3.225
2019-05-17T15:36:15.784Z,2.050
2019-05-17T15:39:15.626Z,3.575
2019-05-17T15:45:15.726Z,4.125
